Аэропорт: Атырау. Атырау

ICAO: UATG

METAR:
2020-10-19 15:30:00
UATG 191530Z 04003MPS 7000 NSC 13/M02 Q1014 R14/CLRD70 NOSIG RMK QFE762/1016
METAR:
2020-10-19 11:00:00
TAF UATG 191100Z 1912/2012 16007MPS 9999 SCT033 TX16/2011Z TN09/2004Z BECMG 1914/1916 VRB03MPS BECMG 2002/2004 29009MPS BECMG 2007/2008 32010G15MPS BKN030CB